Briscoe, Texas
Current Conditions -  °F | °C
As of 2:35 AM on Saturday 29 Nov 2014 (Local Time) from KHHF Reporting Station
Clear Clear  
Wind Chill: 55°   Ceiling: Unl
Heat Index: 55°   Visibility: NA
Dew Point: 24°   Wind: 13mph
Humidity: 30%   Direction: 240°WSW
Pressure: 29.73"   Gusts: NA
Location:  35.58°N, 100.29°W
Report Text: KHHF 290835Z AUTO 24011KT CLR 13/M04 A2973 RMK AO2 T01291045 PWINO
Loading
Personal Weather Stations






























Interactive Weather Map New forecast layout! Learn more

10-Day Weather Forecast

Advertisements
Track Severe Weather on mobile